Airfield :
LOGIN :

Register | Disclaimer

   EN    FR    IT 

 










Legend :    VFR   Marginal VFR   IFR   Intensive IFR   Very Intensive IFR
Visi :
Ceiling :
>= 8 km
>= 3000ft
5 to 8 km
1000 to 3000 ft
1500m to 5 km
500 to 1000 ft
800 to 1500m
200 to 500 ft
< 800m
< 200 ft
Symbols :   Thunderstorms  Fog  Heavy snow  Heavy precipitations  Wind > 20 kt
SIGMETs :     Misc.  Thunderstorms  Icing  Turbulence  Mountain Waves  Volcanic Ashes






- Airport Elevation : 587 ft
- IATA code : XCR


LFOK - Chalons Vatry

CURRENT METAR :
  • 131000Z AUTO 25025KT 9999 OVC020/// ///CB 06/04 Q0983 TEMPO 26025G40KT 4000 SHRA

EXPIRED METARs :
  • 130930Z AUTO 25023KT 9999 BKN021/// BKN027/// BKN034/// ///TCU 06/04 Q0982 TEMPO 26025G40KT 4000 SHRA BKN030CB
  • 130900Z AUTO 25022KT 9999 FEW017/// BKN023/// BKN028/// ///TCU 06/04 Q0981 TEMPO 26025G40KT 4000 SHRA BKN030CB
  • 130830Z AUTO 25022KT 9999 BKN022/// BKN031/// BKN043/// ///TCU 06/04 Q0981 TEMPO 26025G40KT 4000 SHRA BKN030CB
  • 130800Z AUTO 25021KT 9999 SCT022/// BKN028/// BKN048/// ///TCU 06/04 Q0980 TEMPO 26025G40KT 4000 SHRA BKN030CB
  • 130730Z AUTO 26021KT 9999 BKN025/// BKN030/// BKN036/// ///TCU 06/04 Q0979 TEMPO 26025G40KT 4000 SHRA BKN030CB

TAF TAF LFOK
Valid from the 13 at 06:00 until the 14 at 06:00 UTC


130500Z 1306/1406 26020G30KT 9999 BKN030
PROB30
TEMPO 1306/1318 26025G40KT 4000 SHRA BKN030CB
BECMG 1316/1318 19015G25KT
TEMPO 1322/1402 4000 RA BKN009 OVC013
BECMG 1402/1404 27020G35KT
TEMPO 1404/1406 27025G45KT 4000 SHRA BKN020CB



MET'MAP, your aeronautical weather chart ! - Copyright ORBIFLY December 2007 - Disclaimer

ORBIFLY MET'MAP TEAM :

Programming & Development : Alexandra Zaïnal
Concept & original design : Baudouin d'Aumeries
Assistance for programming : Marc-Olivier Méhu
Technical & hardware support : Manuel Goepfert

Contact : metmap@orbifly.com




SOURCES & CREDITS :

   NOAA